createdAt,value
2023-08-04T00:01:39.702Z,99674.84
2023-08-04T00:04:06.750Z,99670.16
2023-08-04T00:06:33.946Z,99672.72
2023-08-04T00:09:01.014Z,99675.06
2023-08-04T00:11:33.856Z,99678.84
2023-08-04T00:14:01.589Z,99679.31
2023-08-04T00:16:29.627Z,99682.28
2023-08-04T00:18:56.963Z,99679.38
2023-08-04T00:21:24.330Z,99680.03
2023-08-04T00:23:57.602Z,99678.78
2023-08-04T00:26:26.924Z,99677.78
2023-08-04T00:28:55.293Z,99689.63
2023-08-04T00:31:24.851Z,99684.78
2023-08-04T00:33:51.459Z,99680.59
2023-08-04T00:36:18.881Z,99684.22
2023-08-04T00:38:46.925Z,99688.94
2023-08-04T00:41:14.009Z,99685.56
2023-08-04T00:46:07.987Z,99688.13
2023-08-04T00:48:35.113Z,99677.16
2023-08-04T00:51:02.777Z,99683.19
2023-08-04T00:53:31.230Z,99681.06
2023-08-04T00:55:57.928Z,99677.09
2023-08-04T00:58:24.637Z,99683.66
2023-08-04T01:00:51.735Z,99677.88
2023-08-04T01:03:25.920Z,99688.06
2023-08-04T01:06:26.278Z,99689.38
2023-08-04T01:09:20.904Z,99683.84
2023-08-04T01:11:56.902Z,99687.00
2023-08-04T01:14:26.378Z,99691.50
2023-08-04T01:16:53.315Z,99688.13
2023-08-04T01:19:20.784Z,99680.72
2023-08-04T01:21:47.682Z,99679.50
2023-08-04T01:24:14.962Z,99671.06
2023-08-04T01:26:47.883Z,99676.31
2023-08-04T01:29:15.640Z,99682.88
2023-08-04T01:31:43.363Z,99683.69
2023-08-04T01:34:15.253Z,99678.41
2023-08-04T01:36:44.687Z,99681.59
2023-08-04T01:39:14.649Z,99676.53
2023-08-04T01:41:43.655Z,99679.94
2023-08-04T01:44:10.176Z,99674.00
2023-08-04T01:46:37.314Z,99678.66
2023-08-04T01:49:03.939Z,99674.22
2023-08-04T01:53:55.689Z,99678.25
2023-08-04T01:56:27.998Z,99674.03
2023-08-04T01:58:54.720Z,99675.06
2023-08-04T02:01:21.942Z,99681.88
2023-08-04T02:03:49.940Z,99686.72
2023-08-04T02:06:16.487Z,99688.03
2023-08-04T02:08:43.592Z,99680.63
2023-08-04T02:11:10.151Z,99685.50
2023-08-04T02:13:42.633Z,99684.44
2023-08-04T02:16:09.254Z,99682.75
2023-08-04T02:18:36.509Z,99686.13
2023-08-04T02:21:04.034Z,99681.06
2023-08-04T02:23:32.012Z,99681.47
2023-08-04T02:25:59.361Z,99681.47
2023-08-04T02:28:27.190Z,99692.03
2023-08-04T02:30:53.814Z,99694.38
2023-08-04T02:33:20.841Z,99693.34
2023-08-04T02:35:47.435Z,99691.22
2023-08-04T02:38:14.511Z,99698.84
2023-08-04T02:40:42.030Z,99684.69
2023-08-04T02:43:08.988Z,99692.84
2023-08-04T02:45:35.615Z,99683.34
2023-08-04T02:48:02.240Z,99693.25
2023-08-04T02:52:59.498Z,99690.59
2023-08-04T02:55:26.431Z,99689.53
2023-08-04T02:57:53.548Z,99699.03
2023-08-04T03:00:26.332Z,99698.81
2023-08-04T03:02:57.766Z,99690.78
2023-08-04T03:05:24.663Z,99697.16
2023-08-04T03:07:51.446Z,99704.13
2023-08-04T03:10:24.081Z,99697.78
2023-08-04T03:12:50.767Z,99691.66
2023-08-04T03:15:17.650Z,99703.72
2023-08-04T03:17:44.254Z,99697.78
2023-08-04T03:20:12.081Z,99694.81
2023-08-04T03:22:39.461Z,99703.28
2023-08-04T03:25:07.328Z,99704.53
2023-08-04T03:27:33.899Z,99714.69
2023-08-04T03:30:00.475Z,99708.56
2023-08-04T03:32:27.510Z,99703.28
2023-08-04T03:34:54.208Z,99711.72
2023-08-04T03:37:20.881Z,99710.88
2023-08-04T03:39:53.602Z,99709.81
2023-08-04T03:42:20.671Z,99711.72
2023-08-04T03:44:47.265Z,99718.69
2023-08-04T03:47:14.433Z,99714.47
2023-08-04T03:49:41.914Z,99720.78
2023-08-04T03:54:33.700Z,99722.28
2023-08-04T03:57:01.704Z,99724.63
2023-08-04T03:59:28.615Z,99731.78
2023-08-04T04:01:55.322Z,99729.03
2023-08-04T04:04:22.032Z,99723.34
2023-08-04T04:06:49.386Z,99721.44
2023-08-04T04:09:16.426Z,99731.19
2023-08-04T04:11:44.487Z,99729.91
2023-08-04T04:14:12.465Z,99734.97
2023-08-04T04:16:40.788Z,99732.84
2023-08-04T04:19:08.818Z,99729.03
2023-08-04T04:21:35.880Z,99722.53
2023-08-04T04:24:05.625Z,99733.28
2023-08-04T04:26:35.039Z,99730.63
2023-08-04T04:29:04.517Z,99715.59
2023-08-04T04:31:32.362Z,99731.06
2023-08-04T04:33:59.440Z,99730.84
2023-08-04T04:36:26.322Z,99739.69
2023-08-04T04:38:53.124Z,99733.53
2023-08-04T04:41:21.371Z,99734.69
2023-08-04T04:43:54.293Z,99724.00
2023-08-04T04:46:23.871Z,99732.78
2023-08-04T04:48:51.468Z,99729.50
2023-08-04T04:51:20.876Z,99733.94
2023-08-04T04:53:50.518Z,99736.09
2023-08-04T04:58:43.516Z,99740.22
2023-08-04T05:01:10.231Z,99739.31
2023-08-04T05:03:38.564Z,99732.69
2023-08-04T05:06:05.910Z,99739.06
2023-08-04T05:08:32.529Z,99743.72
2023-08-04T05:10:59.703Z,99741.44
2023-08-04T05:13:26.821Z,99741.53
2023-08-04T05:15:53.784Z,99755.34
2023-08-04T05:18:21.645Z,99750.28
2023-08-04T05:20:53.527Z,99752.53
2023-08-04T05:23:20.713Z,99758.34
2023-08-04T05:25:48.064Z,99758.75
2023-08-04T05:28:46.655Z,99751.03
2023-08-04T05:31:13.775Z,99751.41
2023-08-04T05:33:41.785Z,99753.53
2023-08-04T05:36:10.062Z,99747.75
2023-08-04T05:38:36.740Z,99757.94
2023-08-04T05:41:04.684Z,99757.09
2023-08-04T05:43:32.324Z,99755.47
2023-08-04T05:46:03.223Z,99759.59
2023-08-04T05:48:31.897Z,99749.91
2023-08-04T05:50:59.226Z,99755.47
2023-08-04T05:53:33.199Z,99752.97
2023-08-04T05:56:00.247Z,99757.56
2023-08-04T06:00:52.601Z,99753.69
2023-08-04T06:03:19.785Z,99758.94
2023-08-04T06:05:49.246Z,99763.41
2023-08-04T06:08:17.103Z,99755.81
2023-08-04T06:10:44.077Z,99751.69
2023-08-04T06:13:11.151Z,99752.81
2023-08-04T06:15:38.170Z,99749.84
2023-08-04T06:18:05.266Z,99742.75
2023-08-04T06:20:33.989Z,99743.34
2023-08-04T06:23:03.614Z,99745.81
2023-08-04T06:25:30.685Z,99746.19
2023-08-04T06:27:58.373Z,99741.41
2023-08-04T06:30:25.262Z,99745.59
2023-08-04T06:32:52.754Z,99744.16
2023-08-04T06:35:20.795Z,99738.91
2023-08-04T06:37:47.920Z,99737.63
2023-08-04T06:40:15.090Z,99737.63
2023-08-04T06:42:44.425Z,99734.03
2023-08-04T06:45:11.764Z,99739.44
2023-08-04T06:47:38.934Z,99735.81
2023-08-04T06:50:07.364Z,99742.06
2023-08-04T06:52:35.288Z,99740.53
2023-08-04T06:57:52.441Z,99737.28
2023-08-04T07:00:19.051Z,99741.38
2023-08-04T07:02:49.935Z,99735.00
2023-08-04T07:05:17.628Z,99735.16
2023-08-04T07:07:50.253Z,99738.72
2023-08-04T07:10:18.064Z,99733.59
2023-08-04T07:12:45.197Z,99724.31
2023-08-04T07:15:12.970Z,99731.06
2023-08-04T07:17:40.049Z,99731.75
2023-08-04T07:20:08.614Z,99733.25
2023-08-04T07:22:41.251Z,99729.34
2023-08-04T07:25:09.617Z,99727.38
2023-08-04T07:27:36.677Z,99728.59
2023-08-04T07:30:03.498Z,99724.13
2023-08-04T07:32:30.074Z,99724.91
2023-08-04T07:35:02.843Z,99724.06
2023-08-04T07:37:49.331Z,99717.78
2023-08-04T07:40:16.725Z,99726.16
2023-08-04T07:42:46.408Z,99724.69
2023-08-04T07:45:13.618Z,99712.72
2023-08-04T07:47:43.298Z,99714.97
2023-08-04T07:50:11.000Z,99717.66
2023-08-04T07:52:38.037Z,99715.09
2023-08-04T07:57:33.080Z,99706.81
2023-08-04T08:00:00.191Z,99703.72
2023-08-04T08:02:27.376Z,99711.47
2023-08-04T08:04:54.349Z,99704.44
2023-08-04T08:07:28.757Z,99703.13
2023-08-04T08:10:03.111Z,99708.72
2023-08-04T08:12:30.242Z,99694.97
2023-08-04T08:14:57.300Z,99692.56
2023-08-04T08:17:24.515Z,99700.22
2023-08-04T08:19:52.553Z,99694.06
2023-08-04T08:22:24.401Z,99696.44
2023-08-04T08:24:57.873Z,99689.56
2023-08-04T08:27:25.199Z,99692.00
2023-08-04T08:29:55.013Z,99690.59
2023-08-04T08:32:22.231Z,99688.16
2023-08-04T08:34:49.866Z,99685.13
2023-08-04T08:37:17.085Z,99676.56
2023-08-04T08:39:44.685Z,99682.78
2023-08-04T08:42:12.003Z,99683.50
2023-08-04T08:44:39.155Z,99679.59
2023-08-04T08:47:07.083Z,99673.28
2023-08-04T08:49:41.885Z,99667.25
2023-08-04T08:52:09.233Z,99672.97
2023-08-04T08:54:37.251Z,99672.09
2023-08-04T08:57:06.043Z,99674.81
2023-08-04T08:59:33.993Z,99671.63
2023-08-04T09:04:28.988Z,99666.78
2023-08-04T09:06:57.234Z,99667.28
2023-08-04T09:09:24.152Z,99663.34
2023-08-04T09:11:52.439Z,99659.97
2023-08-04T09:14:19.408Z,99654.69
2023-08-04T09:16:49.109Z,99652.16
2023-08-04T09:19:18.426Z,99653.41
2023-08-04T09:21:45.903Z,99647.78
2023-08-04T09:24:13.641Z,99656.19
2023-08-04T09:26:45.748Z,99648.53
2023-08-04T09:29:13.054Z,99643.63
2023-08-04T09:31:48.967Z,99638.00
2023-08-04T09:34:20.007Z,99636.31
2023-08-04T09:36:49.351Z,99642.72
2023-08-04T09:39:16.272Z,99630.25
2023-08-04T09:41:48.897Z,99624.94
2023-08-04T09:44:16.340Z,99625.38
2023-08-04T09:46:54.051Z,99626.41
2023-08-04T09:49:22.125Z,99615.22
2023-08-04T09:51:49.502Z,99610.63
2023-08-04T09:54:16.729Z,99611.06
2023-08-04T09:56:44.245Z,99609.91
2023-08-04T09:59:12.269Z,99608.72
2023-08-04T10:01:41.315Z,99613.59
2023-08-04T10:04:10.757Z,99610.22
2023-08-04T10:06:41.074Z,99603.03
2023-08-04T10:09:09.096Z,99600.53
2023-08-04T10:14:01.594Z,99604.28
2023-08-04T10:16:38.925Z,99601.72
2023-08-04T10:19:08.694Z,99595.47
2023-08-04T10:21:48.555Z,99601.75
2023-08-04T10:24:15.909Z,99597.50
2023-08-04T10:26:48.856Z,99589.22
2023-08-04T10:29:19.779Z,99586.03
2023-08-04T10:31:59.123Z,99583.44
2023-08-04T10:34:31.514Z,99583.81
2023-08-04T10:37:06.989Z,99592.28
2023-08-04T10:39:49.448Z,99590.91
2023-08-04T10:42:22.777Z,99585.19
2023-08-04T10:44:57.371Z,99573.22
2023-08-04T10:48:10.379Z,99579.56
2023-08-04T10:50:42.700Z,99565.16
2023-08-04T10:53:11.163Z,99570.28
2023-08-04T10:55:50.290Z,99560.94
2023-08-04T10:58:17.038Z,99556.94
2023-08-04T11:00:49.599Z,99553.69
2023-08-04T11:03:34.734Z,99563.13
2023-08-04T11:06:07.628Z,99553.22
2023-08-04T11:08:37.031Z,99547.06
2023-08-04T11:11:03.930Z,99543.81
2023-08-04T11:13:30.900Z,99531.41
2023-08-04T11:16:02.675Z,99528.19
2023-08-04T11:18:32.541Z,99529.19
2023-08-04T11:21:09.539Z,99530.50
2023-08-04T11:23:41.801Z,99525.50
2023-08-04T11:26:11.894Z,99524.84
2023-08-04T11:28:38.972Z,99526.34
2023-08-04T11:31:06.746Z,99513.09
2023-08-04T11:33:44.030Z,99510.47
2023-08-04T11:36:15.441Z,99523.44
2023-08-04T11:38:42.545Z,99524.16
2023-08-04T11:41:12.665Z,99510.22
2023-08-04T11:43:39.669Z,99503.25
2023-08-04T11:46:09.346Z,99507.38
2023-08-04T11:48:38.626Z,99497.63
2023-08-04T11:51:08.609Z,99504.91
2023-08-04T11:53:37.437Z,99483.63
2023-08-04T11:56:05.299Z,99490.91
2023-08-04T11:58:40.216Z,99496.59
2023-08-04T12:01:24.762Z,99491.78
2023-08-04T12:03:51.838Z,99488.94
2023-08-04T12:06:22.618Z,99470.16
2023-08-04T12:08:54.288Z,99471.69
2023-08-04T12:11:23.832Z,99483.50
2023-08-04T12:13:51.028Z,99475.50
2023-08-04T12:16:23.209Z,99470.34
2023-08-04T12:18:50.704Z,99470.00
2023-08-04T12:21:22.421Z,99465.19
2023-08-04T12:23:49.991Z,99461.69
2023-08-04T12:26:17.577Z,99456.88
2023-08-04T12:31:35.509Z,99448.38
2023-08-04T12:34:03.484Z,99455.53
2023-08-04T12:36:30.648Z,99450.72
2023-08-04T12:38:57.890Z,99447.69
2023-08-04T12:41:27.420Z,99442.72
2023-08-04T12:43:54.348Z,99440.41
2023-08-04T12:46:21.527Z,99426.66
2023-08-04T12:49:08.016Z,99436.72
2023-08-04T12:51:34.976Z,99423.34
2023-08-04T12:54:01.638Z,99424.06
2023-08-04T12:56:31.178Z,99431.81
2023-08-04T12:58:58.619Z,99433.25
2023-08-04T13:01:26.075Z,99417.97
2023-08-04T13:03:53.752Z,99417.16
2023-08-04T13:06:21.868Z,99417.81
2023-08-04T13:08:48.928Z,99417.16
2023-08-04T13:11:16.371Z,99415.81
2023-08-04T13:13:43.098Z,99415.31
2023-08-04T13:16:15.762Z,99412.19
2023-08-04T13:18:43.420Z,99412.81
2023-08-04T13:21:11.342Z,99410.16
2023-08-04T13:23:38.870Z,99403.13
2023-08-04T13:26:09.071Z,99404.59
2023-08-04T13:28:36.315Z,99397.69
2023-08-04T13:33:28.712Z,99387.09
2023-08-04T13:36:00.736Z,99391.50
2023-08-04T13:38:27.771Z,99390.19
2023-08-04T13:40:56.138Z,99391.66
2023-08-04T13:43:26.779Z,99380.41
2023-08-04T13:45:59.269Z,99387.03
2023-08-04T13:48:26.342Z,99378.09
2023-08-04T13:51:00.951Z,99381.91
2023-08-04T13:53:29.854Z,99374.72
2023-08-04T13:55:56.869Z,99377.28
2023-08-04T13:58:23.805Z,99374.63
2023-08-04T14:01:04.567Z,99372.72
2023-08-04T14:03:31.540Z,99379.78
2023-08-04T14:06:02.968Z,99365.78
2023-08-04T14:08:35.665Z,99374.41
2023-08-04T14:11:02.402Z,99373.03
2023-08-04T14:13:29.526Z,99372.91
2023-08-04T14:15:56.638Z,99368.63
2023-08-04T14:18:23.725Z,99359.44
2023-08-04T14:20:50.784Z,99368.69
2023-08-04T14:23:18.774Z,99366.50
2023-08-04T14:25:46.795Z,99368.03
2023-08-04T14:28:20.447Z,99368.75
2023-08-04T14:30:50.228Z,99367.00
2023-08-04T14:35:42.091Z,99359.03
2023-08-04T14:38:09.740Z,99355.72
2023-08-04T14:40:36.836Z,99358.31
2023-08-04T14:43:04.023Z,99359.44
2023-08-04T14:45:37.467Z,99350.59
2023-08-04T14:48:05.148Z,99346.34
2023-08-04T14:50:33.146Z,99344.69
2023-08-04T14:53:00.609Z,99335.66
2023-08-04T14:55:27.995Z,99333.47
2023-08-04T14:57:54.917Z,99329.91
2023-08-04T15:00:22.231Z,99333.44
2023-08-04T15:02:54.030Z,99327.47
2023-08-04T15:05:21.625Z,99318.97
2023-08-04T15:07:48.768Z,99308.25
2023-08-04T15:10:16.570Z,99318.72
2023-08-04T15:12:44.138Z,99311.50
2023-08-04T15:15:13.807Z,99310.84
2023-08-04T15:17:40.935Z,99313.91
2023-08-04T15:20:16.712Z,99308.66
2023-08-04T15:22:46.201Z,99300.19
2023-08-04T15:25:13.299Z,99305.28
2023-08-04T15:30:35.241Z,99299.41
2023-08-04T15:33:02.450Z,99306.84
2023-08-04T15:35:29.742Z,99308.13
2023-08-04T15:37:57.020Z,99307.88
2023-08-04T15:40:26.357Z,99313.69
2023-08-04T15:42:53.018Z,99311.56
2023-08-04T15:45:20.629Z,99308.97
2023-08-04T15:47:47.286Z,99306.72
2023-08-04T15:50:16.860Z,99301.50
2023-08-04T15:52:44.076Z,99298.75
2023-08-04T15:55:13.393Z,99298.09
2023-08-04T15:57:45.579Z,99293.19
2023-08-04T16:00:15.555Z,99281.28
2023-08-04T16:02:42.642Z,99278.72
2023-08-04T16:05:10.853Z,99280.97
2023-08-04T16:07:37.749Z,99283.31
2023-08-04T16:10:05.485Z,99279.59
2023-08-04T16:12:33.378Z,99285.81
2023-08-04T16:15:01.137Z,99282.31
2023-08-04T16:17:28.241Z,99283.69
2023-08-04T16:19:55.350Z,99280.75
2023-08-04T16:22:22.438Z,99278.84
2023-08-04T16:24:49.478Z,99286.50
2023-08-04T16:29:42.624Z,99282.91
2023-08-04T16:32:10.593Z,99285.16
2023-08-04T16:34:37.733Z,99283.03
2023-08-04T16:37:05.399Z,99283.81
2023-08-04T16:39:37.851Z,99273.13
2023-08-04T16:42:04.771Z,99275.63
2023-08-04T16:44:31.805Z,99262.31
2023-08-04T16:47:01.445Z,99268.13
2023-08-04T16:49:28.728Z,99272.22
2023-08-04T16:51:55.734Z,99275.66
2023-08-04T16:54:23.192Z,99273.47
2023-08-04T16:56:50.492Z,99269.31
2023-08-04T16:59:18.368Z,99269.47
2023-08-04T17:01:46.145Z,99275.78
2023-08-04T17:04:13.256Z,99269.00
2023-08-04T17:06:41.155Z,99262.09
2023-08-04T17:09:12.658Z,99266.06
2023-08-04T17:11:42.183Z,99259.63
2023-08-04T17:14:09.230Z,99267.00
2023-08-04T17:16:36.872Z,99256.09
2023-08-04T17:19:03.919Z,99261.97
2023-08-04T17:21:30.480Z,99254.19
2023-08-04T17:23:56.998Z,99258.97
2023-08-04T17:26:24.455Z,99249.72
2023-08-04T17:28:51.014Z,99258.56
2023-08-04T17:31:18.857Z,99255.13
2023-08-04T17:33:45.690Z,99256.19
2023-08-04T17:38:42.649Z,99253.75
2023-08-04T17:41:14.573Z,99260.72
2023-08-04T17:43:43.381Z,99258.25
2023-08-04T17:46:10.522Z,99256.38
2023-08-04T17:48:39.279Z,99255.66
2023-08-04T17:51:11.834Z,99253.91
2023-08-04T17:53:38.789Z,99259.63
2023-08-04T17:56:07.486Z,99257.50
2023-08-04T17:58:34.253Z,99263.22
2023-08-04T18:01:02.568Z,99257.59
2023-08-04T18:03:30.151Z,99262.06
2023-08-04T18:06:02.012Z,99262.25
2023-08-04T18:08:29.545Z,99263.84
2023-08-04T18:10:56.701Z,99269.09
2023-08-04T18:13:23.266Z,99264.81
2023-08-04T18:15:54.777Z,99261.34
2023-08-04T18:18:22.158Z,99262.53
2023-08-04T18:20:49.162Z,99263.34
2023-08-04T18:23:17.443Z,99267.69
2023-08-04T18:25:44.632Z,99276.03
2023-08-04T18:28:11.703Z,99276.31
2023-08-04T18:30:43.133Z,99274.75
2023-08-04T18:33:11.043Z,99268.38
2023-08-04T18:35:46.541Z,99272.91
2023-08-04T18:38:13.293Z,99279.47
2023-08-04T18:40:40.041Z,99276.81
2023-08-04T18:43:07.641Z,99287.84
2023-08-04T18:47:59.368Z,99286.66
2023-08-04T18:50:26.527Z,99290.09
2023-08-04T18:52:53.167Z,99294.34
2023-08-04T18:55:21.033Z,99293.03
2023-08-04T18:57:53.776Z,99284.75
2023-08-04T19:00:22.419Z,99292.66
2023-08-04T19:02:49.036Z,99291.84
2023-08-04T19:05:17.741Z,99291.94
2023-08-04T19:07:44.812Z,99289.72
2023-08-04T19:10:11.705Z,99294.59
2023-08-04T19:12:38.282Z,99288.50
2023-08-04T19:15:06.547Z,99289.97
2023-08-04T19:17:33.669Z,99294.53
2023-08-04T19:20:07.059Z,99293.97
2023-08-04T19:22:33.938Z,99294.81
2023-08-04T19:25:00.702Z,99298.50
2023-08-04T19:27:27.845Z,99295.72
2023-08-04T19:29:55.777Z,99295.75
2023-08-04T19:32:22.845Z,99299.44
2023-08-04T19:34:49.510Z,99297.81
2023-08-04T19:37:17.521Z,99301.44
2023-08-04T19:39:44.103Z,99295.13
2023-08-04T19:42:11.949Z,99293.44
2023-08-04T19:44:38.642Z,99293.47
2023-08-04T19:47:07.879Z,99302.13
2023-08-04T19:52:28.556Z,99285.41
2023-08-04T19:54:55.968Z,99285.19
2023-08-04T19:57:23.005Z,99287.72
2023-08-04T19:59:50.154Z,99282.47
2023-08-04T20:02:17.700Z,99295.28
2023-08-04T20:04:44.286Z,99290.03
2023-08-04T20:07:11.697Z,99283.88
2023-08-04T20:09:38.710Z,99287.53
2023-08-04T20:12:08.696Z,99294.84
2023-08-04T20:14:35.353Z,99289.53
2023-08-04T20:17:02.706Z,99283.69
2023-08-04T20:19:29.573Z,99285.66
2023-08-04T20:21:56.174Z,99284.81
2023-08-04T20:24:23.047Z,99286.78
2023-08-04T20:26:50.606Z,99288.19
2023-08-04T20:29:17.958Z,99290.69
2023-08-04T20:31:45.059Z,99288.44
2023-08-04T20:34:12.188Z,99288.19
2023-08-04T20:36:39.275Z,99296.00
2023-08-04T20:39:08.879Z,99281.78
2023-08-04T20:41:35.986Z,99286.22
2023-08-04T20:44:05.455Z,99284.00
2023-08-04T20:46:32.487Z,99286.50
2023-08-04T20:48:59.412Z,99289.00
2023-08-04T20:51:26.566Z,99286.94
2023-08-04T20:53:54.581Z,99279.63
2023-08-04T20:56:21.781Z,99275.34
2023-08-04T20:58:49.907Z,99279.19
2023-08-04T21:01:16.941Z,99278.03
2023-08-04T21:03:47.477Z,99275.06
2023-08-04T21:06:14.594Z,99271.38
2023-08-04T21:08:41.689Z,99267.16
2023-08-04T21:11:08.743Z,99265.25
2023-08-04T21:13:36.753Z,99262.72
2023-08-04T21:16:05.440Z,99254.28
2023-08-04T21:18:33.870Z,99254.47
2023-08-04T21:21:00.962Z,99243.25
2023-08-04T21:23:28.175Z,99239.91
2023-08-04T21:25:55.052Z,99244.97
2023-08-04T21:28:23.215Z,99239.84
2023-08-04T21:30:54.611Z,99238.47
2023-08-04T21:33:22.673Z,99246.03
2023-08-04T21:36:05.472Z,99241.88
2023-08-04T21:38:32.898Z,99244.94
2023-08-04T21:41:04.335Z,99250.50
2023-08-04T21:43:31.890Z,99241.31
2023-08-04T21:46:08.579Z,99246.03
2023-08-04T21:48:35.771Z,99258.78
2023-08-04T21:51:12.978Z,99259.06
2023-08-04T21:53:40.767Z,99265.44
2023-08-04T21:56:08.512Z,99252.09
2023-08-04T22:01:08.132Z,99260.66
2023-08-04T22:03:39.879Z,99262.88
2023-08-04T22:06:08.800Z,99261.41
2023-08-04T22:08:35.900Z,99269.31
2023-08-04T22:11:09.907Z,99277.63
2023-08-04T22:13:40.975Z,99276.41
2023-08-04T22:16:11.270Z,99272.19
2023-08-04T22:18:38.222Z,99269.47
2023-08-04T22:21:11.242Z,99273.53
2023-08-04T22:23:40.789Z,99281.75
2023-08-04T22:26:08.395Z,99276.50
2023-08-04T22:28:37.712Z,99282.13
2023-08-04T22:31:05.231Z,99282.97
2023-08-04T22:33:33.097Z,99279.09
2023-08-04T22:35:59.876Z,99278.00
2023-08-04T22:38:26.634Z,99281.28
2023-08-04T22:40:57.041Z,99279.00
2023-08-04T22:43:31.043Z,99279.75
2023-08-04T22:45:58.184Z,99281.16
2023-08-04T22:48:30.477Z,99278.53
2023-08-04T22:51:11.014Z,99279.81
2023-08-04T22:53:40.833Z,99277.69
2023-08-04T22:58:47.771Z,99274.44
2023-08-04T23:01:14.294Z,99275.25
2023-08-04T23:03:41.289Z,99286.53
2023-08-04T23:09:09.147Z,99276.00
2023-08-04T23:11:35.718Z,99266.06
2023-08-04T23:14:02.726Z,99278.53
2023-08-04T23:16:29.853Z,99268.53
2023-08-04T23:18:57.921Z,99267.13
2023-08-04T23:21:25.019Z,99277.00
2023-08-04T23:23:52.472Z,99265.34
2023-08-04T23:26:20.147Z,99264.41
2023-08-04T23:28:47.266Z,99263.66
2023-08-04T23:31:14.303Z,99262.81
2023-08-04T23:33:40.928Z,99260.56
2023-08-04T23:36:08.024Z,99253.91
2023-08-04T23:38:37.310Z,99253.91
2023-08-04T23:41:12.619Z,99256.94
2023-08-04T23:43:45.206Z,99264.09
2023-08-04T23:46:12.823Z,99265.13
2023-08-04T23:48:39.993Z,99258.06
2023-08-04T23:51:08.212Z,99253.09
2023-08-04T23:53:39.894Z,99244.97
2023-08-04T23:56:06.467Z,99254.22
2023-08-04T23:58:34.667Z,99249.72
